sensor_id;sensor_type;location;lat;lon;timestamp;P1;durP1;ratioP1;P2;durP2;ratioP2
44572;SDS011;31762;45.420;10.072;2022-10-15T00:04:42;33.25;;;19.35;;
44572;SDS011;31762;45.420;10.072;2022-10-15T00:09:43;29.77;;;18.90;;
44572;SDS011;31762;45.420;10.072;2022-10-15T00:14:45;34.13;;;21.20;;
44572;SDS011;31762;45.420;10.072;2022-10-15T00:19:47;30.47;;;20.07;;
44572;SDS011;31762;45.420;10.072;2022-10-15T00:24:49;31.13;;;19.10;;
44572;SDS011;31762;45.420;10.072;2022-10-15T00:29:50;33.10;;;19.57;;
44572;SDS011;31762;45.420;10.072;2022-10-15T00:34:52;34.43;;;20.83;;
44572;SDS011;31762;45.420;10.072;2022-10-15T00:39:54;28.73;;;19.00;;
44572;SDS011;31762;45.420;10.072;2022-10-15T00:44:56;32.30;;;20.27;;
44572;SDS011;31762;45.420;10.072;2022-10-15T00:55:05;33.65;;;21.45;;
44572;SDS011;31762;45.420;10.072;2022-10-15T01:00:12;35.27;;;22.07;;
44572;SDS011;31762;45.420;10.072;2022-10-15T01:05:15;32.90;;;19.88;;
44572;SDS011;31762;45.420;10.072;2022-10-15T01:10:18;37.17;;;19.65;;
44572;SDS011;31762;45.420;10.072;2022-10-15T01:20:47;29.47;;;18.60;;
44572;SDS011;31762;45.420;10.072;2022-10-15T01:31:28;33.47;;;20.83;;
44572;SDS011;31762;45.420;10.072;2022-10-15T01:36:56;33.60;;;20.00;;
44572;SDS011;31762;45.420;10.072;2022-10-15T01:42:30;35.42;;;20.05;;
44572;SDS011;31762;45.420;10.072;2022-10-15T01:47:48;30.47;;;19.50;;
44572;SDS011;31762;45.420;10.072;2022-10-15T01:52:56;31.17;;;19.83;;
44572;SDS011;31762;45.420;10.072;2022-10-15T01:58:00;30.42;;;19.25;;
44572;SDS011;31762;45.420;10.072;2022-10-15T02:03:05;32.47;;;20.88;;
44572;SDS011;31762;45.420;10.072;2022-10-15T02:08:13;29.50;;;18.50;;
44572;SDS011;31762;45.420;10.072;2022-10-15T02:13:27;32.80;;;19.70;;
44572;SDS011;31762;45.420;10.072;2022-10-15T02:18:52;32.97;;;19.55;;
44572;SDS011;31762;45.420;10.072;2022-10-15T02:29:28;38.47;;;21.77;;
44572;SDS011;31762;45.420;10.072;2022-10-15T02:34:33;33.90;;;19.77;;
44572;SDS011;31762;45.420;10.072;2022-10-15T02:39:36;36.10;;;20.98;;
44572;SDS011;31762;45.420;10.072;2022-10-15T02:44:38;33.88;;;20.63;;
44572;SDS011;31762;45.420;10.072;2022-10-15T02:49:40;33.35;;;19.60;;
44572;SDS011;31762;45.420;10.072;2022-10-15T02:54:41;32.08;;;20.15;;
44572;SDS011;31762;45.420;10.072;2022-10-15T02:59:43;30.10;;;19.42;;
44572;SDS011;31762;45.420;10.072;2022-10-15T03:04:45;33.95;;;19.92;;
44572;SDS011;31762;45.420;10.072;2022-10-15T03:09:46;31.25;;;19.55;;
44572;SDS011;31762;45.420;10.072;2022-10-15T03:14:48;31.42;;;18.80;;
44572;SDS011;31762;45.420;10.072;2022-10-15T03:19:50;27.98;;;18.33;;
44572;SDS011;31762;45.420;10.072;2022-10-15T03:24:52;30.73;;;18.45;;
44572;SDS011;31762;45.420;10.072;2022-10-15T03:29:53;31.58;;;19.23;;
44572;SDS011;31762;45.420;10.072;2022-10-15T03:34:55;32.53;;;20.10;;
44572;SDS011;31762;45.420;10.072;2022-10-15T03:39:57;31.87;;;19.27;;
44572;SDS011;31762;45.420;10.072;2022-10-15T03:44:58;35.07;;;20.27;;
44572;SDS011;31762;45.420;10.072;2022-10-15T03:50:00;28.27;;;17.80;;
44572;SDS011;31762;45.420;10.072;2022-10-15T03:55:02;30.13;;;18.87;;
44572;SDS011;31762;45.420;10.072;2022-10-15T04:00:05;35.60;;;20.87;;
44572;SDS011;31762;45.420;10.072;2022-10-15T04:05:09;32.03;;;18.70;;
44572;SDS011;31762;45.420;10.072;2022-10-15T04:10:10;31.20;;;18.50;;
44572;SDS011;31762;45.420;10.072;2022-10-15T04:15:12;27.80;;;18.13;;
44572;SDS011;31762;45.420;10.072;2022-10-15T04:20:14;30.33;;;18.98;;
44572;SDS011;31762;45.420;10.072;2022-10-15T04:25:16;32.67;;;20.27;;
44572;SDS011;31762;45.420;10.072;2022-10-15T04:30:18;37.53;;;21.17;;
44572;SDS011;31762;45.420;10.072;2022-10-15T04:35:19;33.45;;;20.27;;
44572;SDS011;31762;45.420;10.072;2022-10-15T04:40:21;30.65;;;18.90;;
44572;SDS011;31762;45.420;10.072;2022-10-15T04:45:23;32.88;;;19.75;;
44572;SDS011;31762;45.420;10.072;2022-10-15T04:50:25;34.47;;;19.45;;
44572;SDS011;31762;45.420;10.072;2022-10-15T04:55:27;31.70;;;19.83;;
44572;SDS011;31762;45.420;10.072;2022-10-15T05:00:28;29.67;;;18.85;;
44572;SDS011;31762;45.420;10.072;2022-10-15T05:05:30;29.13;;;18.80;;
44572;SDS011;31762;45.420;10.072;2022-10-15T05:10:32;32.33;;;20.20;;
44572;SDS011;31762;45.420;10.072;2022-10-15T05:15:34;39.05;;;20.83;;
44572;SDS011;31762;45.420;10.072;2022-10-15T05:20:36;35.78;;;21.10;;
44572;SDS011;31762;45.420;10.072;2022-10-15T05:25:37;37.08;;;22.33;;
44572;SDS011;31762;45.420;10.072;2022-10-15T05:30:39;34.08;;;21.23;;
44572;SDS011;31762;45.420;10.072;2022-10-15T05:35:41;36.13;;;21.25;;
44572;SDS011;31762;45.420;10.072;2022-10-15T05:40:46;36.85;;;20.88;;
44572;SDS011;31762;45.420;10.072;2022-10-15T05:45:52;39.95;;;22.90;;
44572;SDS011;31762;45.420;10.072;2022-10-15T05:51:04;34.40;;;21.55;;
44572;SDS011;31762;45.420;10.072;2022-10-15T05:56:08;35.50;;;18.97;;
44572;SDS011;31762;45.420;10.072;2022-10-15T06:01:11;38.13;;;20.75;;
44572;SDS011;31762;45.420;10.072;2022-10-15T06:06:14;36.30;;;21.13;;
44572;SDS011;31762;45.420;10.072;2022-10-15T06:11:21;36.08;;;20.88;;
44572;SDS011;31762;45.420;10.072;2022-10-15T06:16:22;44.37;;;22.03;;
44572;SDS011;31762;45.420;10.072;2022-10-15T06:21:24;39.77;;;22.87;;
44572;SDS011;31762;45.420;10.072;2022-10-15T06:26:26;35.20;;;22.00;;
44572;SDS011;31762;45.420;10.072;2022-10-15T06:31:28;37.30;;;22.33;;
44572;SDS011;31762;45.420;10.072;2022-10-15T06:36:29;40.77;;;21.80;;
44572;SDS011;31762;45.420;10.072;2022-10-15T06:41:31;33.70;;;22.23;;
44572;SDS011;31762;45.420;10.072;2022-10-15T06:46:33;35.63;;;20.67;;
44572;SDS011;31762;45.420;10.072;2022-10-15T06:51:34;35.17;;;21.33;;
44572;SDS011;31762;45.420;10.072;2022-10-15T06:56:36;37.42;;;20.35;;
44572;SDS011;31762;45.420;10.072;2022-10-15T07:01:38;38.55;;;21.70;;
44572;SDS011;31762;45.420;10.072;2022-10-15T07:06:42;36.00;;;21.93;;
44572;SDS011;31762;45.420;10.072;2022-10-15T07:11:44;35.57;;;21.63;;
44572;SDS011;31762;45.420;10.072;2022-10-15T07:16:46;33.35;;;21.75;;
44572;SDS011;31762;45.420;10.072;2022-10-15T07:21:48;35.50;;;22.57;;
44572;SDS011;31762;45.420;10.072;2022-10-15T07:26:50;38.27;;;22.80;;
44572;SDS011;31762;45.420;10.072;2022-10-15T07:31:52;35.77;;;20.93;;
44572;SDS011;31762;45.420;10.072;2022-10-15T07:36:54;39.78;;;21.95;;
44572;SDS011;31762;45.420;10.072;2022-10-15T07:41:55;39.05;;;23.25;;
44572;SDS011;31762;45.420;10.072;2022-10-15T07:46:57;36.28;;;22.70;;
44572;SDS011;31762;45.420;10.072;2022-10-15T07:51:59;34.78;;;20.70;;
44572;SDS011;31762;45.420;10.072;2022-10-15T07:57:00;37.65;;;23.52;;
44572;SDS011;31762;45.420;10.072;2022-10-15T08:02:02;36.90;;;21.23;;
44572;SDS011;31762;45.420;10.072;2022-10-15T08:07:04;34.42;;;22.33;;
44572;SDS011;31762;45.420;10.072;2022-10-15T08:12:10;35.78;;;21.33;;
44572;SDS011;31762;45.420;10.072;2022-10-15T08:17:12;36.60;;;21.83;;
44572;SDS011;31762;45.420;10.072;2022-10-15T08:22:14;37.83;;;22.17;;
44572;SDS011;31762;45.420;10.072;2022-10-15T08:27:15;36.38;;;20.98;;
44572;SDS011;31762;45.420;10.072;2022-10-15T08:32:17;43.50;;;22.73;;
44572;SDS011;31762;45.420;10.072;2022-10-15T08:37:19;36.65;;;22.15;;
44572;SDS011;31762;45.420;10.072;2022-10-15T08:42:30;36.97;;;22.75;;
44572;SDS011;31762;45.420;10.072;2022-10-15T08:47:37;36.75;;;21.77;;
44572;SDS011;31762;45.420;10.072;2022-10-15T08:52:47;41.80;;;22.30;;
44572;SDS011;31762;45.420;10.072;2022-10-15T09:03:04;39.70;;;22.93;;
44572;SDS011;31762;45.420;10.072;2022-10-15T09:08:27;45.42;;;23.55;;
44572;SDS011;31762;45.420;10.072;2022-10-15T09:13:34;35.38;;;22.05;;
44572;SDS011;31762;45.420;10.072;2022-10-15T09:18:40;41.63;;;22.27;;
44572;SDS011;31762;45.420;10.072;2022-10-15T09:23:48;35.67;;;22.60;;
44572;SDS011;31762;45.420;10.072;2022-10-15T09:28:52;43.10;;;24.30;;
44572;SDS011;31762;45.420;10.072;2022-10-15T09:34:24;49.55;;;25.77;;
44572;SDS011;31762;45.420;10.072;2022-10-15T09:45:13;45.95;;;24.98;;
44572;SDS011;31762;45.420;10.072;2022-10-15T09:50:16;42.45;;;24.52;;
44572;SDS011;31762;45.420;10.072;2022-10-15T09:55:30;41.83;;;24.90;;
44572;SDS011;31762;45.420;10.072;2022-10-15T10:06:03;45.30;;;25.08;;
44572;SDS011;31762;45.420;10.072;2022-10-15T10:11:08;43.03;;;25.00;;
44572;SDS011;31762;45.420;10.072;2022-10-15T10:16:12;39.08;;;24.80;;
44572;SDS011;31762;45.420;10.072;2022-10-15T10:21:23;44.40;;;26.40;;
44572;SDS011;31762;45.420;10.072;2022-10-15T10:26:35;48.28;;;24.70;;
44572;SDS011;31762;45.420;10.072;2022-10-15T10:31:37;39.83;;;23.70;;
44572;SDS011;31762;45.420;10.072;2022-10-15T10:36:38;48.75;;;25.83;;
44572;SDS011;31762;45.420;10.072;2022-10-15T10:41:52;43.58;;;26.02;;
44572;SDS011;31762;45.420;10.072;2022-10-15T10:57:29;44.75;;;24.48;;
44572;SDS011;31762;45.420;10.072;2022-10-15T11:02:44;42.40;;;23.85;;
44572;SDS011;31762;45.420;10.072;2022-10-15T11:07:52;43.80;;;23.70;;
44572;SDS011;31762;45.420;10.072;2022-10-15T11:13:01;41.00;;;24.85;;
44572;SDS011;31762;45.420;10.072;2022-10-15T11:55:51;42.17;;;24.60;;
44572;SDS011;31762;45.420;10.072;2022-10-15T12:00:57;44.25;;;23.98;;
44572;SDS011;31762;45.420;10.072;2022-10-15T12:06:12;43.63;;;25.57;;
44572;SDS011;31762;45.420;10.072;2022-10-15T12:11:26;45.65;;;27.27;;
44572;SDS011;31762;45.420;10.072;2022-10-15T12:28:02;43.67;;;25.45;;
44572;SDS011;31762;45.420;10.072;2022-10-15T12:33:21;41.10;;;25.65;;
44572;SDS011;31762;45.420;10.072;2022-10-15T12:38:33;41.17;;;24.93;;
44572;SDS011;31762;45.420;10.072;2022-10-15T12:43:44;40.47;;;26.10;;
44572;SDS011;31762;45.420;10.072;2022-10-15T12:48:52;42.95;;;25.73;;
44572;SDS011;31762;45.420;10.072;2022-10-15T12:53:54;41.20;;;24.90;;
44572;SDS011;31762;45.420;10.072;2022-10-15T12:58:56;44.30;;;23.85;;
44572;SDS011;31762;45.420;10.072;2022-10-15T13:03:57;46.13;;;25.77;;
44572;SDS011;31762;45.420;10.072;2022-10-15T13:14:45;42.80;;;25.07;;
44572;SDS011;31762;45.420;10.072;2022-10-15T13:19:59;39.03;;;23.75;;
44572;SDS011;31762;45.420;10.072;2022-10-15T13:25:13;39.22;;;22.60;;
44572;SDS011;31762;45.420;10.072;2022-10-15T13:30:16;32.15;;;20.90;;
44572;SDS011;31762;45.420;10.072;2022-10-15T13:35:20;35.35;;;21.83;;
44572;SDS011;31762;45.420;10.072;2022-10-15T13:40:26;35.65;;;20.83;;
44572;SDS011;31762;45.420;10.072;2022-10-15T13:45:30;33.85;;;20.75;;
44572;SDS011;31762;45.420;10.072;2022-10-15T13:50:32;37.10;;;20.27;;
44572;SDS011;31762;45.420;10.072;2022-10-15T13:55:37;38.13;;;20.23;;
44572;SDS011;31762;45.420;10.072;2022-10-15T14:01:29;30.40;;;19.80;;
44572;SDS011;31762;45.420;10.072;2022-10-15T14:06:37;33.40;;;20.90;;
44572;SDS011;31762;45.420;10.072;2022-10-15T14:11:38;32.10;;;19.73;;
44572;SDS011;31762;45.420;10.072;2022-10-15T14:16:42;31.55;;;19.25;;
44572;SDS011;31762;45.420;10.072;2022-10-15T14:21:47;30.00;;;17.17;;
44572;SDS011;31762;45.420;10.072;2022-10-15T14:26:49;30.05;;;19.05;;
44572;SDS011;31762;45.420;10.072;2022-10-15T14:31:51;32.25;;;19.70;;
44572;SDS011;31762;45.420;10.072;2022-10-15T14:36:53;33.67;;;18.88;;
44572;SDS011;31762;45.420;10.072;2022-10-15T14:42:02;31.23;;;17.67;;
44572;SDS011;31762;45.420;10.072;2022-10-15T14:47:25;31.40;;;18.50;;
44572;SDS011;31762;45.420;10.072;2022-10-15T14:52:30;29.67;;;18.17;;
44572;SDS011;31762;45.420;10.072;2022-10-15T14:57:38;33.38;;;19.20;;
44572;SDS011;31762;45.420;10.072;2022-10-15T15:02:42;26.98;;;17.67;;
44572;SDS011;31762;45.420;10.072;2022-10-15T15:07:44;32.15;;;19.10;;
44572;SDS011;31762;45.420;10.072;2022-10-15T15:12:48;31.27;;;18.02;;
44572;SDS011;31762;45.420;10.072;2022-10-15T15:17:52;34.10;;;19.73;;
44572;SDS011;31762;45.420;10.072;2022-10-15T15:22:53;34.27;;;19.30;;
44572;SDS011;31762;45.420;10.072;2022-10-15T15:27:55;37.95;;;20.42;;
44572;SDS011;31762;45.420;10.072;2022-10-15T15:32:58;31.50;;;19.30;;
44572;SDS011;31762;45.420;10.072;2022-10-15T15:37:59;34.17;;;19.02;;
44572;SDS011;31762;45.420;10.072;2022-10-15T15:43:01;33.00;;;19.13;;
44572;SDS011;31762;45.420;10.072;2022-10-15T15:48:03;32.47;;;18.83;;
44572;SDS011;31762;45.420;10.072;2022-10-15T15:53:07;30.23;;;18.55;;
44572;SDS011;31762;45.420;10.072;2022-10-15T15:58:10;35.45;;;19.45;;
44572;SDS011;31762;45.420;10.072;2022-10-15T16:03:12;30.70;;;18.83;;
44572;SDS011;31762;45.420;10.072;2022-10-15T16:08:14;32.42;;;18.40;;
44572;SDS011;31762;45.420;10.072;2022-10-15T16:13:16;33.42;;;18.58;;
44572;SDS011;31762;45.420;10.072;2022-10-15T16:18:18;32.15;;;19.67;;
44572;SDS011;31762;45.420;10.072;2022-10-15T16:23:20;28.25;;;17.85;;
44572;SDS011;31762;45.420;10.072;2022-10-15T16:28:22;34.17;;;20.80;;
44572;SDS011;31762;45.420;10.072;2022-10-15T16:33:24;32.22;;;20.10;;
44572;SDS011;31762;45.420;10.072;2022-10-15T16:38:25;41.85;;;19.50;;
44572;SDS011;31762;45.420;10.072;2022-10-15T16:43:27;33.78;;;20.50;;
44572;SDS011;31762;45.420;10.072;2022-10-15T16:48:29;36.80;;;21.70;;
44572;SDS011;31762;45.420;10.072;2022-10-15T16:53:33;37.92;;;22.25;;
44572;SDS011;31762;45.420;10.072;2022-10-15T16:58:36;39.80;;;21.73;;
44572;SDS011;31762;45.420;10.072;2022-10-15T17:03:38;41.85;;;22.20;;
44572;SDS011;31762;45.420;10.072;2022-10-15T17:08:43;37.45;;;21.00;;
44572;SDS011;31762;45.420;10.072;2022-10-15T17:13:51;33.50;;;21.70;;
44572;SDS011;31762;45.420;10.072;2022-10-15T17:18:54;45.95;;;21.45;;
44572;SDS011;31762;45.420;10.072;2022-10-15T17:23:58;39.97;;;23.45;;
44572;SDS011;31762;45.420;10.072;2022-10-15T17:29:02;34.85;;;19.65;;
44572;SDS011;31762;45.420;10.072;2022-10-15T17:34:06;33.55;;;20.95;;
44572;SDS011;31762;45.420;10.072;2022-10-15T17:39:11;37.05;;;22.17;;
44572;SDS011;31762;45.420;10.072;2022-10-15T17:44:14;35.83;;;20.60;;
44572;SDS011;31762;45.420;10.072;2022-10-15T17:49:15;31.58;;;19.10;;
44572;SDS011;31762;45.420;10.072;2022-10-15T17:54:17;33.25;;;19.42;;
44572;SDS011;31762;45.420;10.072;2022-10-15T17:59:19;36.70;;;21.40;;
44572;SDS011;31762;45.420;10.072;2022-10-15T18:04:20;39.13;;;22.15;;
44572;SDS011;31762;45.420;10.072;2022-10-15T18:09:23;43.47;;;21.00;;
44572;SDS011;31762;45.420;10.072;2022-10-15T18:14:26;33.92;;;20.73;;
44572;SDS011;31762;45.420;10.072;2022-10-15T18:19:29;37.33;;;20.87;;
44572;SDS011;31762;45.420;10.072;2022-10-15T18:24:30;39.17;;;22.37;;
44572;SDS011;31762;45.420;10.072;2022-10-15T18:29:32;36.22;;;21.60;;
44572;SDS011;31762;45.420;10.072;2022-10-15T18:34:34;34.72;;;21.85;;
44572;SDS011;31762;45.420;10.072;2022-10-15T18:39:35;32.63;;;20.40;;
44572;SDS011;31762;45.420;10.072;2022-10-15T18:44:37;35.58;;;20.35;;
44572;SDS011;31762;45.420;10.072;2022-10-15T18:49:39;33.88;;;20.48;;
44572;SDS011;31762;45.420;10.072;2022-10-15T18:54:41;42.88;;;22.17;;
44572;SDS011;31762;45.420;10.072;2022-10-15T18:59:42;42.28;;;22.52;;
44572;SDS011;31762;45.420;10.072;2022-10-15T19:04:44;41.78;;;25.60;;
44572;SDS011;31762;45.420;10.072;2022-10-15T19:09:46;38.97;;;24.15;;
44572;SDS011;31762;45.420;10.072;2022-10-15T19:14:48;37.10;;;23.40;;
44572;SDS011;31762;45.420;10.072;2022-10-15T19:19:49;37.85;;;23.85;;
44572;SDS011;31762;45.420;10.072;2022-10-15T19:24:51;38.50;;;22.48;;
44572;SDS011;31762;45.420;10.072;2022-10-15T19:29:53;45.03;;;22.10;;
44572;SDS011;31762;45.420;10.072;2022-10-15T19:34:55;39.42;;;24.27;;
44572;SDS011;31762;45.420;10.072;2022-10-15T19:39:57;37.60;;;23.10;;
44572;SDS011;31762;45.420;10.072;2022-10-15T19:44:58;43.00;;;23.65;;
44572;SDS011;31762;45.420;10.072;2022-10-15T19:50:00;40.88;;;24.30;;
44572;SDS011;31762;45.420;10.072;2022-10-15T19:55:02;40.97;;;25.77;;
44572;SDS011;31762;45.420;10.072;2022-10-15T20:00:04;41.42;;;24.40;;
44572;SDS011;31762;45.420;10.072;2022-10-15T20:05:06;43.25;;;23.60;;
44572;SDS011;31762;45.420;10.072;2022-10-15T20:10:08;40.78;;;24.02;;
44572;SDS011;31762;45.420;10.072;2022-10-15T20:15:10;41.88;;;23.40;;
44572;SDS011;31762;45.420;10.072;2022-10-15T20:20:12;36.97;;;24.30;;
44572;SDS011;31762;45.420;10.072;2022-10-15T20:25:14;49.20;;;26.50;;
44572;SDS011;31762;45.420;10.072;2022-10-15T20:30:16;41.33;;;26.67;;
44572;SDS011;31762;45.420;10.072;2022-10-15T20:35:17;39.40;;;24.23;;
44572;SDS011;31762;45.420;10.072;2022-10-15T20:40:19;47.20;;;26.03;;
44572;SDS011;31762;45.420;10.072;2022-10-15T20:45:21;39.25;;;25.48;;
44572;SDS011;31762;45.420;10.072;2022-10-15T20:50:27;45.75;;;25.50;;
44572;SDS011;31762;45.420;10.072;2022-10-15T20:55:32;42.67;;;24.13;;
44572;SDS011;31762;45.420;10.072;2022-10-15T21:00:34;41.27;;;24.83;;
44572;SDS011;31762;45.420;10.072;2022-10-15T21:05:36;44.30;;;26.00;;
44572;SDS011;31762;45.420;10.072;2022-10-15T21:10:38;41.67;;;25.58;;
44572;SDS011;31762;45.420;10.072;2022-10-15T21:15:40;41.55;;;23.77;;
44572;SDS011;31762;45.420;10.072;2022-10-15T21:20:41;42.20;;;25.52;;
44572;SDS011;31762;45.420;10.072;2022-10-15T21:25:43;48.08;;;26.15;;
44572;SDS011;31762;45.420;10.072;2022-10-15T21:30:45;42.42;;;24.05;;
44572;SDS011;31762;45.420;10.072;2022-10-15T21:35:46;41.88;;;26.67;;
44572;SDS011;31762;45.420;10.072;2022-10-15T21:40:48;40.00;;;24.40;;
44572;SDS011;31762;45.420;10.072;2022-10-15T21:45:50;37.63;;;24.80;;
44572;SDS011;31762;45.420;10.072;2022-10-15T21:50:52;42.87;;;24.40;;
44572;SDS011;31762;45.420;10.072;2022-10-15T21:55:54;46.63;;;26.10;;
44572;SDS011;31762;45.420;10.072;2022-10-15T22:00:56;35.33;;;24.73;;
44572;SDS011;31762;45.420;10.072;2022-10-15T22:05:58;44.28;;;25.52;;
44572;SDS011;31762;45.420;10.072;2022-10-15T22:11:10;43.83;;;24.75;;
44572;SDS011;31762;45.420;10.072;2022-10-15T22:16:14;47.30;;;25.25;;
44572;SDS011;31762;45.420;10.072;2022-10-15T22:21:18;45.88;;;26.30;;
44572;SDS011;31762;45.420;10.072;2022-10-15T22:26:24;40.42;;;25.23;;
44572;SDS011;31762;45.420;10.072;2022-10-15T22:31:28;41.05;;;24.15;;
44572;SDS011;31762;45.420;10.072;2022-10-15T22:36:30;41.90;;;24.95;;
44572;SDS011;31762;45.420;10.072;2022-10-15T22:41:33;43.57;;;26.23;;
44572;SDS011;31762;45.420;10.072;2022-10-15T22:46:38;39.73;;;24.80;;
44572;SDS011;31762;45.420;10.072;2022-10-15T22:51:40;43.20;;;24.88;;
44572;SDS011;31762;45.420;10.072;2022-10-15T22:56:42;40.00;;;22.65;;
44572;SDS011;31762;45.420;10.072;2022-10-15T23:01:44;45.75;;;26.58;;
44572;SDS011;31762;45.420;10.072;2022-10-15T23:06:46;43.08;;;25.00;;
44572;SDS011;31762;45.420;10.072;2022-10-15T23:11:48;41.65;;;23.73;;
44572;SDS011;31762;45.420;10.072;2022-10-15T23:16:49;41.80;;;23.83;;
44572;SDS011;31762;45.420;10.072;2022-10-15T23:21:52;42.78;;;25.60;;
44572;SDS011;31762;45.420;10.072;2022-10-15T23:26:55;40.70;;;23.60;;
44572;SDS011;31762;45.420;10.072;2022-10-15T23:31:57;41.00;;;24.50;;
44572;SDS011;31762;45.420;10.072;2022-10-15T23:36:58;40.35;;;24.35;;
44572;SDS011;31762;45.420;10.072;2022-10-15T23:42:00;41.67;;;23.58;;
44572;SDS011;31762;45.420;10.072;2022-10-15T23:47:02;38.13;;;23.27;;
44572;SDS011;31762;45.420;10.072;2022-10-15T23:52:03;39.70;;;23.80;;
44572;SDS011;31762;45.420;10.072;2022-10-15T23:57:05;42.03;;;24.02;;
